createdAt,value
2019-01-20T00:00:02.206Z,959.90
2019-01-20T00:01:02.183Z,959.90
2019-01-20T00:02:02.168Z,959.90
2019-01-20T00:03:02.151Z,959.87
2019-01-20T00:04:02.136Z,959.87
2019-01-20T00:05:02.178Z,959.88
2019-01-20T00:06:02.105Z,959.87
2019-01-20T00:07:02.088Z,959.89
2019-01-20T00:08:02.078Z,959.88
2019-01-20T00:09:02.056Z,959.84
2019-01-20T00:10:02.041Z,959.89
2019-01-20T00:11:02.026Z,959.88
2019-01-20T00:12:02.007Z,959.87
2019-01-20T00:13:01.994Z,959.88
2019-01-20T00:14:01.989Z,959.90
2019-01-20T00:15:01.963Z,959.89
2019-01-20T00:16:01.948Z,959.86
2019-01-20T00:17:01.930Z,959.85
2019-01-20T00:18:01.914Z,959.91
2019-01-20T00:19:01.906Z,959.89
2019-01-20T00:20:01.883Z,959.86
2019-01-20T00:21:01.867Z,959.93
2019-01-20T00:22:01.851Z,959.91
2019-01-20T00:23:01.835Z,959.91
2019-01-20T00:24:01.820Z,959.88
2019-01-20T00:25:01.825Z,959.90
2019-01-20T00:26:01.785Z,959.90
2019-01-20T00:27:01.778Z,959.86
2019-01-20T00:28:01.755Z,959.86
2019-01-20T00:29:01.739Z,959.89
2019-01-20T00:30:01.725Z,959.90
2019-01-20T00:31:01.713Z,959.93
2019-01-20T00:32:01.686Z,959.95
2019-01-20T00:33:01.673Z,959.89
2019-01-20T00:34:01.656Z,959.89
2019-01-20T00:35:01.642Z,959.88
2019-01-20T00:36:01.627Z,959.88
2019-01-20T00:37:01.608Z,959.90
2019-01-20T00:38:01.596Z,959.89
2019-01-20T00:39:01.578Z,959.86
2019-01-20T00:40:01.564Z,959.84
2019-01-20T00:41:01.545Z,959.87
2019-01-20T00:42:01.529Z,959.84
2019-01-20T00:43:01.511Z,959.85
2019-01-20T00:44:01.505Z,959.82
2019-01-20T00:45:02.742Z,959.79
2019-01-20T00:46:01.463Z,959.81
2019-01-20T00:47:01.449Z,959.81
2019-01-20T00:48:01.441Z,959.81
2019-01-20T00:49:01.437Z,959.76
2019-01-20T00:50:01.404Z,959.76
2019-01-20T00:51:01.385Z,959.78
2019-01-20T00:52:02.337Z,959.80
2019-01-20T00:53:01.350Z,959.81
2019-01-20T00:54:01.338Z,959.80
2019-01-20T00:55:01.321Z,959.80
2019-01-20T00:56:01.302Z,959.83
2019-01-20T00:57:01.291Z,959.79
2019-01-20T00:58:01.274Z,959.76
2019-01-20T00:59:01.256Z,959.79
2019-01-20T01:00:01.237Z,959.75
2019-01-20T01:01:01.222Z,959.77
2019-01-20T01:02:01.206Z,959.77
2019-01-20T01:03:01.187Z,959.82
2019-01-20T01:04:01.173Z,959.74
2019-01-20T01:05:01.157Z,959.75
2019-01-20T01:06:01.140Z,959.75
2019-01-20T01:07:01.124Z,959.75
2019-01-20T01:08:01.108Z,959.73
2019-01-20T01:09:01.093Z,959.75
2019-01-20T01:10:01.076Z,959.77
2019-01-20T01:11:01.061Z,959.75
2019-01-20T01:12:01.043Z,959.78
2019-01-20T01:13:01.027Z,959.74
2019-01-20T01:14:01.007Z,959.80
2019-01-20T01:15:00.993Z,959.79
2019-01-20T01:16:00.980Z,959.78
2019-01-20T01:17:00.959Z,959.77
2019-01-20T01:18:00.945Z,959.71
2019-01-20T01:19:00.927Z,959.79
2019-01-20T01:20:00.912Z,959.76
2019-01-20T01:21:00.895Z,959.78
2019-01-20T01:22:00.880Z,959.75
2019-01-20T01:23:00.860Z,959.77
2019-01-20T01:24:00.846Z,959.79
2019-01-20T01:25:00.832Z,959.79
2019-01-20T01:26:00.813Z,959.75
2019-01-20T01:27:00.797Z,959.73
2019-01-20T01:28:00.783Z,959.76
2019-01-20T01:29:00.764Z,959.76
2019-01-20T01:30:00.748Z,959.78
2019-01-20T01:31:00.730Z,959.75
2019-01-20T01:32:00.726Z,959.73
2019-01-20T01:33:00.699Z,959.70
2019-01-20T01:34:00.677Z,959.75
2019-01-20T01:35:00.662Z,959.74
2019-01-20T01:36:00.659Z,959.75
2019-01-20T01:37:00.630Z,959.72
2019-01-20T01:38:00.614Z,959.71
2019-01-20T01:39:00.596Z,959.72
2019-01-20T01:40:00.581Z,959.71
2019-01-20T01:41:00.564Z,959.72
2019-01-20T01:42:00.614Z,959.72
2019-01-20T01:43:00.532Z,959.71
2019-01-20T01:44:00.516Z,959.71
2019-01-20T01:45:00.500Z,959.71
2019-01-20T01:46:00.485Z,959.67
2019-01-20T01:47:00.465Z,959.66
2019-01-20T01:48:00.449Z,959.67
2019-01-20T01:49:00.434Z,959.65
2019-01-20T01:50:00.417Z,959.65
2019-01-20T01:51:00.398Z,959.68
2019-01-20T01:52:00.385Z,959.68
2019-01-20T01:53:00.367Z,959.65
2019-01-20T01:54:00.351Z,959.60
2019-01-20T01:55:00.353Z,959.57
2019-01-20T01:56:00.315Z,959.64
2019-01-20T01:57:00.302Z,959.61
2019-01-20T01:58:00.281Z,959.61
2019-01-20T01:59:00.268Z,959.63
2019-01-20T02:00:00.250Z,959.61
2019-01-20T02:01:00.235Z,959.60
2019-01-20T02:02:00.219Z,959.56
2019-01-20T02:03:00.212Z,959.53
2019-01-20T02:04:00.201Z,959.50
2019-01-20T02:05:00.206Z,959.47
2019-01-20T02:06:00.152Z,959.47
2019-01-20T02:07:00.134Z,959.46
2019-01-20T02:08:00.122Z,959.43
2019-01-20T02:09:00.104Z,959.45
2019-01-20T02:10:00.097Z,959.45
2019-01-20T02:11:00.068Z,959.43
2019-01-20T02:12:00.055Z,959.47
2019-01-20T02:13:00.036Z,959.43
2019-01-20T02:14:00.020Z,959.45
2019-01-20T02:15:00.002Z,959.45
2019-01-20T02:15:59.985Z,959.46
2019-01-20T02:16:59.977Z,959.41
2019-01-20T02:17:59.956Z,959.42
2019-01-20T02:18:59.941Z,959.45
2019-01-20T02:19:59.921Z,959.41
2019-01-20T02:20:59.920Z,959.41
2019-01-20T02:21:59.885Z,959.43
2019-01-20T02:22:59.870Z,959.46
2019-01-20T02:23:59.854Z,959.45
2019-01-20T02:24:59.839Z,959.46
2019-01-20T02:25:59.820Z,959.43
2019-01-20T02:26:59.804Z,959.44
2019-01-20T02:27:59.803Z,959.44
2019-01-20T02:28:59.771Z,959.43
2019-01-20T02:29:59.753Z,959.43
2019-01-20T02:30:59.739Z,959.42
2019-01-20T02:31:59.719Z,959.42
2019-01-20T02:32:59.708Z,959.46
2019-01-20T02:33:59.686Z,959.44
2019-01-20T02:34:59.670Z,959.42
2019-01-20T02:35:59.654Z,959.42
2019-01-20T02:36:59.643Z,959.45
2019-01-20T02:37:59.633Z,959.42
2019-01-20T02:38:59.605Z,959.47
2019-01-20T02:39:59.587Z,959.46
2019-01-20T02:40:59.571Z,959.45
2019-01-20T02:41:59.556Z,959.45
2019-01-20T02:42:59.546Z,959.46
2019-01-20T02:43:59.520Z,959.46
2019-01-20T02:44:59.504Z,959.45
2019-01-20T02:45:59.492Z,959.46
2019-01-20T02:46:59.475Z,959.49
2019-01-20T02:47:59.453Z,959.50
2019-01-20T02:48:59.437Z,959.48
2019-01-20T02:49:59.420Z,959.49
2019-01-20T02:50:59.398Z,959.53
2019-01-20T02:51:59.387Z,959.51
2019-01-20T02:52:59.371Z,959.55
2019-01-20T02:53:59.353Z,959.56
2019-01-20T02:54:59.334Z,959.52
2019-01-20T02:55:59.324Z,959.53
2019-01-20T02:56:59.302Z,959.53
2019-01-20T02:57:59.286Z,959.54
2019-01-20T02:58:59.268Z,959.54
2019-01-20T02:59:59.253Z,959.54
2019-01-20T03:00:59.255Z,959.53
2019-01-20T03:01:59.219Z,959.50
2019-01-20T03:02:59.204Z,959.54
2019-01-20T03:03:59.186Z,959.51
2019-01-20T03:04:59.168Z,959.51
2019-01-20T03:05:59.151Z,959.49
2019-01-20T03:06:59.137Z,959.50
2019-01-20T03:07:59.117Z,959.50
2019-01-20T03:08:59.100Z,959.47
2019-01-20T03:09:59.085Z,959.49
2019-01-20T03:10:59.072Z,959.47
2019-01-20T03:12:03.415Z,959.46
2019-01-20T03:12:59.032Z,959.49
2019-01-20T03:13:59.022Z,959.46
2019-01-20T03:14:58.998Z,959.44
2019-01-20T03:15:58.992Z,959.44
2019-01-20T03:16:58.963Z,959.41
2019-01-20T03:17:58.949Z,959.42
2019-01-20T03:18:58.930Z,959.42
2019-01-20T03:19:58.915Z,959.44
2019-01-20T03:20:58.895Z,959.43
2019-01-20T03:21:58.878Z,959.38
2019-01-20T03:22:58.862Z,959.43
2019-01-20T03:23:58.846Z,959.42
2019-01-20T03:24:58.829Z,959.40
2019-01-20T03:25:58.811Z,959.44
2019-01-20T03:26:58.795Z,959.40
2019-01-20T03:27:58.780Z,959.41
2019-01-20T03:28:58.762Z,959.41
2019-01-20T03:29:58.745Z,959.38
2019-01-20T03:30:58.728Z,959.37
2019-01-20T03:31:58.726Z,959.38
2019-01-20T03:32:58.692Z,959.33
2019-01-20T03:33:58.677Z,959.34
2019-01-20T03:34:58.665Z,959.34
2019-01-20T03:35:58.644Z,959.32
2019-01-20T03:36:58.626Z,959.33
2019-01-20T03:37:58.608Z,959.30
2019-01-20T03:38:58.600Z,959.34
2019-01-20T03:39:58.578Z,959.31
2019-01-20T03:40:58.559Z,959.27
2019-01-20T03:41:58.543Z,959.36
2019-01-20T03:42:58.525Z,959.27
2019-01-20T03:43:58.507Z,959.28
2019-01-20T03:44:58.488Z,959.19
2019-01-20T03:45:58.474Z,959.18
2019-01-20T03:46:58.458Z,959.23
2019-01-20T03:47:58.446Z,959.21
2019-01-20T03:48:58.424Z,959.21
2019-01-20T03:49:58.406Z,959.21
2019-01-20T03:50:58.390Z,959.23
2019-01-20T03:51:58.375Z,959.25
2019-01-20T03:52:58.357Z,959.20
2019-01-20T03:53:58.338Z,959.24
2019-01-20T03:54:58.322Z,959.22
2019-01-20T03:55:58.322Z,959.22
2019-01-20T03:56:58.289Z,959.20
2019-01-20T03:57:58.274Z,959.16
2019-01-20T03:58:58.253Z,959.23
2019-01-20T03:59:58.235Z,959.20
2019-01-20T04:00:58.221Z,959.18
2019-01-20T04:01:58.201Z,959.17
2019-01-20T04:02:58.186Z,959.17
2019-01-20T04:03:58.171Z,959.18
2019-01-20T04:04:58.154Z,959.17
2019-01-20T04:05:58.138Z,959.19
2019-01-20T04:06:58.119Z,959.23
2019-01-20T04:07:58.101Z,959.21
2019-01-20T04:08:58.085Z,959.22
2019-01-20T04:09:58.069Z,959.23
2019-01-20T04:10:58.050Z,959.25
2019-01-20T04:11:58.037Z,959.26
2019-01-20T04:12:58.021Z,959.29
2019-01-20T04:13:58.001Z,959.24
2019-01-20T04:14:57.983Z,959.25
2019-01-20T04:15:57.965Z,959.30
2019-01-20T04:16:57.952Z,959.29
2019-01-20T04:17:57.937Z,959.23
2019-01-20T04:18:57.913Z,959.33
2019-01-20T04:19:57.898Z,959.34
2019-01-20T04:20:57.881Z,959.28
2019-01-20T04:21:57.863Z,959.36
2019-01-20T04:22:57.848Z,959.33
2019-01-20T04:23:57.831Z,959.35
2019-01-20T04:24:57.814Z,959.35
2019-01-20T04:25:57.812Z,959.34
2019-01-20T04:26:57.784Z,959.28
2019-01-20T04:27:57.768Z,959.32
2019-01-20T04:28:57.748Z,959.36
2019-01-20T04:29:57.727Z,959.31
2019-01-20T04:30:57.709Z,959.31
2019-01-20T04:31:57.694Z,959.29
2019-01-20T04:32:57.678Z,959.33
2019-01-20T04:33:57.660Z,959.31
2019-01-20T04:34:57.641Z,959.33
2019-01-20T04:35:57.634Z,959.32
2019-01-20T04:36:57.612Z,959.33
2019-01-20T04:37:57.592Z,959.27
2019-01-20T04:38:57.573Z,959.32
2019-01-20T04:39:57.556Z,959.30
2019-01-20T04:40:57.547Z,959.25
2019-01-20T04:41:57.526Z,959.27
2019-01-20T04:42:57.524Z,959.31
2019-01-20T04:43:57.488Z,959.27
2019-01-20T04:44:57.474Z,959.30
2019-01-20T04:45:57.455Z,959.29
2019-01-20T04:46:57.447Z,959.26
2019-01-20T04:47:57.431Z,959.23
2019-01-20T04:48:57.407Z,959.26
2019-01-20T04:49:57.389Z,959.26
2019-01-20T04:50:57.372Z,959.30
2019-01-20T04:51:57.354Z,959.26
2019-01-20T04:52:57.336Z,959.23
2019-01-20T04:53:57.318Z,959.27
2019-01-20T04:54:57.301Z,959.25
2019-01-20T04:55:57.285Z,959.29
2019-01-20T04:56:57.267Z,959.24
2019-01-20T04:57:57.253Z,959.23
2019-01-20T04:58:57.234Z,959.21
2019-01-20T04:59:57.250Z,959.23
2019-01-20T05:00:57.214Z,959.19
2019-01-20T05:01:57.186Z,959.21
2019-01-20T05:02:57.167Z,959.24
2019-01-20T05:03:57.152Z,959.22
2019-01-20T05:04:57.134Z,959.21
2019-01-20T05:05:57.114Z,959.20
2019-01-20T05:06:57.097Z,959.21
2019-01-20T05:07:57.081Z,959.24
2019-01-20T05:08:57.074Z,959.24
2019-01-20T05:09:57.045Z,959.27
2019-01-20T05:10:57.030Z,959.27
2019-01-20T05:11:57.011Z,959.28
2019-01-20T05:12:56.997Z,959.30
2019-01-20T05:13:57.016Z,959.30
2019-01-20T05:14:56.960Z,959.28
2019-01-20T05:15:56.944Z,959.27
2019-01-20T05:16:56.933Z,959.24
2019-01-20T05:17:56.924Z,959.23
2019-01-20T05:18:56.896Z,959.23
2019-01-20T05:19:56.879Z,959.26
2019-01-20T05:20:56.859Z,959.27
2019-01-20T05:21:56.844Z,959.27
2019-01-20T05:22:56.825Z,959.26
2019-01-20T05:23:56.813Z,959.21
2019-01-20T05:24:56.792Z,959.25
2019-01-20T05:25:56.773Z,959.24
2019-01-20T05:26:56.758Z,959.22
2019-01-20T05:27:56.743Z,959.22
2019-01-20T05:28:56.747Z,959.19
2019-01-20T05:29:56.721Z,959.24
2019-01-20T05:30:56.689Z,959.22
2019-01-20T05:31:56.677Z,959.20
2019-01-20T05:32:56.657Z,959.21
2019-01-20T05:33:56.648Z,959.22
2019-01-20T05:34:57.073Z,959.21
2019-01-20T05:35:56.666Z,959.18
2019-01-20T05:36:56.604Z,959.24
2019-01-20T05:37:56.581Z,959.25
2019-01-20T05:38:56.552Z,959.30
2019-01-20T05:39:56.564Z,959.27
2019-01-20T05:40:56.518Z,959.28
2019-01-20T05:41:56.510Z,959.32
2019-01-20T05:42:56.487Z,959.29
2019-01-20T05:43:56.471Z,959.30
2019-01-20T05:44:56.455Z,959.28
2019-01-20T05:45:56.434Z,959.27
2019-01-20T05:46:56.422Z,959.27
2019-01-20T05:47:56.402Z,959.28
2019-01-20T05:48:56.390Z,959.31
2019-01-20T05:49:56.367Z,959.25
2019-01-20T05:50:56.347Z,959.31
2019-01-20T05:51:56.335Z,959.31
2019-01-20T05:52:56.324Z,959.31
2019-01-20T05:53:56.300Z,959.32
2019-01-20T05:54:56.282Z,959.39
2019-01-20T05:55:56.266Z,959.39
2019-01-20T05:56:56.249Z,959.39
2019-01-20T05:57:56.233Z,959.41
2019-01-20T05:58:56.215Z,959.39
2019-01-20T05:59:56.296Z,959.48
2019-01-20T06:00:56.182Z,959.45
2019-01-20T06:01:56.162Z,959.47
2019-01-20T06:02:56.146Z,959.45
2019-01-20T06:03:56.126Z,959.43
2019-01-20T06:04:56.137Z,959.45
2019-01-20T06:05:56.097Z,959.42
2019-01-20T06:06:56.076Z,959.43
2019-01-20T06:07:56.059Z,959.43
2019-01-20T06:08:56.044Z,959.51
2019-01-20T06:09:56.051Z,959.47
2019-01-20T06:10:56.015Z,959.49
2019-01-20T06:11:55.998Z,959.51
2019-01-20T06:12:55.977Z,959.55
2019-01-20T06:13:55.954Z,959.50
2019-01-20T06:14:55.940Z,959.56
2019-01-20T06:15:55.922Z,959.52
2019-01-20T06:16:55.905Z,959.53
2019-01-20T06:17:55.891Z,959.53
2019-01-20T06:18:55.870Z,959.58
2019-01-20T06:19:55.855Z,959.58
2019-01-20T06:20:55.836Z,959.60
2019-01-20T06:21:55.819Z,959.60
2019-01-20T06:22:55.801Z,959.62
2019-01-20T06:23:55.785Z,959.59
2019-01-20T06:24:55.767Z,959.60
2019-01-20T06:25:55.755Z,959.60
2019-01-20T06:26:55.734Z,959.57
2019-01-20T06:27:55.719Z,959.60
2019-01-20T06:28:55.696Z,959.60
2019-01-20T06:29:55.681Z,959.61
2019-01-20T06:30:55.664Z,959.61
2019-01-20T06:31:55.649Z,959.67
2019-01-20T06:32:55.638Z,959.67
2019-01-20T06:33:55.614Z,959.67
2019-01-20T06:34:55.598Z,959.64
2019-01-20T06:35:55.598Z,959.65
2019-01-20T06:36:55.564Z,959.62
2019-01-20T06:37:55.547Z,959.66
2019-01-20T06:38:55.530Z,959.65
2019-01-20T06:39:55.525Z,959.65
2019-01-20T06:40:56.925Z,959.67
2019-01-20T06:41:55.477Z,959.63
2019-01-20T06:43:01.870Z,959.74
2019-01-20T06:43:55.444Z,959.69
2019-01-20T06:44:55.430Z,959.71
2019-01-20T06:45:55.407Z,959.73
2019-01-20T06:46:55.392Z,959.69
2019-01-20T06:47:55.372Z,959.67
2019-01-20T06:48:55.355Z,959.70
2019-01-20T06:49:55.417Z,959.73
2019-01-20T06:50:55.320Z,959.70
2019-01-20T06:51:55.303Z,959.76
2019-01-20T06:52:55.289Z,959.76
2019-01-20T06:53:55.273Z,959.76
2019-01-20T06:54:55.263Z,959.77
2019-01-20T06:55:55.238Z,959.79
2019-01-20T06:56:55.222Z,959.79
2019-01-20T06:57:55.204Z,959.85
2019-01-20T06:58:55.181Z,959.85
2019-01-20T06:59:55.197Z,959.83
2019-01-20T07:00:55.161Z,959.88
2019-01-20T07:01:55.136Z,959.88
2019-01-20T07:02:55.116Z,959.90
2019-01-20T07:03:55.098Z,959.92
2019-01-20T07:04:55.080Z,959.94
2019-01-20T07:05:55.064Z,959.95
2019-01-20T07:06:55.047Z,959.98
2019-01-20T07:07:55.030Z,959.97
2019-01-20T07:08:55.013Z,960.01
2019-01-20T07:09:54.995Z,960.02
2019-01-20T07:10:54.980Z,960.03
2019-01-20T07:11:54.969Z,960.07
2019-01-20T07:12:54.943Z,960.03
2019-01-20T07:13:54.927Z,960.01
2019-01-20T07:14:54.909Z,960.03
2019-01-20T07:15:54.905Z,960.02
2019-01-20T07:16:54.875Z,960.10
2019-01-20T07:17:54.859Z,960.09
2019-01-20T07:18:54.842Z,960.07
2019-01-20T07:19:54.824Z,960.13
2019-01-20T07:20:54.821Z,960.10
2019-01-20T07:21:54.802Z,960.16
2019-01-20T07:22:54.771Z,960.11
2019-01-20T07:23:54.757Z,960.14
2019-01-20T07:24:54.736Z,960.13
2019-01-20T07:25:54.720Z,960.16
2019-01-20T07:26:54.701Z,960.19
2019-01-20T07:27:54.688Z,960.17
2019-01-20T07:28:54.669Z,960.18
2019-01-20T07:29:54.653Z,960.23
2019-01-20T07:30:54.638Z,960.24
2019-01-20T07:31:54.616Z,960.24
2019-01-20T07:32:54.598Z,960.23
2019-01-20T07:33:54.581Z,960.28
2019-01-20T07:34:54.564Z,960.26
2019-01-20T07:35:54.549Z,960.24
2019-01-20T07:36:54.533Z,960.26
2019-01-20T07:37:54.531Z,960.26
2019-01-20T07:38:54.497Z,960.28
2019-01-20T07:39:54.480Z,960.24
2019-01-20T07:40:54.463Z,960.28
2019-01-20T07:41:54.445Z,960.28
2019-01-20T07:42:54.435Z,960.31
2019-01-20T07:43:54.412Z,960.35
2019-01-20T07:44:54.395Z,960.33
2019-01-20T07:45:54.387Z,960.36
2019-01-20T07:46:54.360Z,960.39
2019-01-20T07:47:54.457Z,960.42
2019-01-20T07:48:54.327Z,960.40
2019-01-20T07:49:54.310Z,960.41
2019-01-20T07:50:54.293Z,960.45
2019-01-20T07:51:54.418Z,960.44
2019-01-20T07:52:54.260Z,960.46
2019-01-20T07:53:54.249Z,960.48
2019-01-20T07:54:54.281Z,960.49
2019-01-20T07:55:54.213Z,960.50
2019-01-20T07:56:54.216Z,960.51
2019-01-20T07:57:54.177Z,960.50
2019-01-20T07:58:54.157Z,960.53
2019-01-20T07:59:54.143Z,960.53
2019-01-20T08:00:54.125Z,960.58
2019-01-20T08:01:54.110Z,960.55
2019-01-20T08:02:54.091Z,960.53
2019-01-20T08:03:54.075Z,960.57
2019-01-20T08:04:54.063Z,960.56
2019-01-20T08:05:54.042Z,960.56
2019-01-20T08:06:54.025Z,960.58
2019-01-20T08:07:54.007Z,960.58
2019-01-20T08:08:53.992Z,960.54
2019-01-20T08:09:53.978Z,960.58
2019-01-20T08:10:53.966Z,960.56
2019-01-20T08:11:53.954Z,960.59
2019-01-20T08:12:53.928Z,960.61
2019-01-20T08:13:53.911Z,960.63
2019-01-20T08:14:53.895Z,960.64
2019-01-20T08:15:53.882Z,960.67
2019-01-20T08:16:53.861Z,960.64
2019-01-20T08:17:53.846Z,960.66
2019-01-20T08:18:53.827Z,960.64
2019-01-20T08:19:53.811Z,960.64
2019-01-20T08:20:53.797Z,960.64
2019-01-20T08:21:53.780Z,960.65
2019-01-20T08:22:53.763Z,960.66
2019-01-20T08:23:53.746Z,960.69
2019-01-20T08:24:53.748Z,960.66
2019-01-20T08:25:53.715Z,960.66
2019-01-20T08:26:53.699Z,960.67
2019-01-20T08:27:53.682Z,960.68
2019-01-20T08:28:53.666Z,960.69
2019-01-20T08:29:53.651Z,960.65
2019-01-20T08:30:53.639Z,960.71
2019-01-20T08:31:53.622Z,960.73
2019-01-20T08:32:53.600Z,960.71
2019-01-20T08:33:53.584Z,960.72
2019-01-20T08:34:53.567Z,960.72
2019-01-20T08:35:53.559Z,960.71
2019-01-20T08:36:53.538Z,960.75
2019-01-20T08:37:53.524Z,960.72
2019-01-20T08:38:53.506Z,960.75
2019-01-20T08:39:53.490Z,960.70
2019-01-20T08:40:53.476Z,960.73
2019-01-20T08:41:53.459Z,960.76
2019-01-20T08:42:53.443Z,960.74
2019-01-20T08:43:53.431Z,960.74
2019-01-20T08:44:53.414Z,960.77
2019-01-20T08:45:53.401Z,960.79
2019-01-20T08:46:53.382Z,960.78
2019-01-20T08:47:53.367Z,960.78
2019-01-20T08:48:53.350Z,960.75
2019-01-20T08:49:53.336Z,960.76
2019-01-20T08:50:53.318Z,960.83
2019-01-20T08:51:53.305Z,960.81
2019-01-20T08:52:53.291Z,960.78
2019-01-20T08:53:53.276Z,960.89
2019-01-20T08:54:53.260Z,961.04
2019-01-20T08:55:53.243Z,961.07
2019-01-20T08:56:53.233Z,961.23
2019-01-20T08:57:53.215Z,961.34
2019-01-20T08:58:53.216Z,961.31
2019-01-20T08:59:53.190Z,961.22
2019-01-20T09:00:53.175Z,961.28
2019-01-20T09:01:53.160Z,961.21
2019-01-20T09:02:53.150Z,961.11
2019-01-20T09:03:53.137Z,961.15
2019-01-20T09:04:53.124Z,961.37
2019-01-20T09:05:53.115Z,961.44
2019-01-20T09:06:53.101Z,961.42
2019-01-20T09:07:53.094Z,961.57
2019-01-20T09:08:53.094Z,961.67
2019-01-20T09:09:53.074Z,961.69
2019-01-20T09:10:53.069Z,961.60
2019-01-20T09:11:53.053Z,961.52
2019-01-20T09:12:53.044Z,961.55
2019-01-20T09:13:53.038Z,961.71
2019-01-20T09:14:53.035Z,961.77
2019-01-20T09:15:53.025Z,961.82
2019-01-20T09:16:53.025Z,961.89
2019-01-20T09:17:53.011Z,961.89
2019-01-20T09:18:53.004Z,961.94
2019-01-20T09:19:52.997Z,961.97
2019-01-20T09:20:52.995Z,961.98
2019-01-20T09:21:52.994Z,961.98
2019-01-20T09:22:52.988Z,961.94
2019-01-20T09:23:52.984Z,961.77
2019-01-20T09:24:52.980Z,961.81
2019-01-20T09:25:52.980Z,961.85
2019-01-20T09:26:52.974Z,961.83
2019-01-20T09:27:52.974Z,961.91
2019-01-20T09:28:52.972Z,961.86
2019-01-20T09:29:52.966Z,961.94
2019-01-20T09:30:53.046Z,961.89
2019-01-20T09:31:53.037Z,961.95
2019-01-20T09:32:52.966Z,962.03
2019-01-20T09:33:52.962Z,962.08
2019-01-20T09:34:52.958Z,962.12
2019-01-20T09:35:52.958Z,962.07
2019-01-20T09:36:52.956Z,962.02
2019-01-20T09:37:52.960Z,962.06
2019-01-20T09:38:52.955Z,962.06
2019-01-20T09:39:52.956Z,962.10
2019-01-20T09:40:52.956Z,962.17
2019-01-20T09:41:52.960Z,962.16
2019-01-20T09:42:52.973Z,962.21
2019-01-20T09:43:52.978Z,962.19
2019-01-20T09:44:52.978Z,962.23
2019-01-20T09:45:52.963Z,962.26
2019-01-20T09:46:52.971Z,962.26
2019-01-20T09:47:52.967Z,962.24
2019-01-20T09:48:54.850Z,962.32
2019-01-20T09:49:52.976Z,962.30
2019-01-20T09:50:52.985Z,962.33
2019-01-20T09:51:53.002Z,962.36
2019-01-20T09:52:53.865Z,962.32
2019-01-20T09:53:53.009Z,962.31
2019-01-20T09:54:52.996Z,962.35
2019-01-20T09:55:53.001Z,962.32
2019-01-20T09:56:53.042Z,962.34
2019-01-20T09:57:53.019Z,962.34
2019-01-20T09:58:53.017Z,962.35
2019-01-20T09:59:53.042Z,962.31
2019-01-20T10:00:53.036Z,962.29
2019-01-20T10:01:53.035Z,962.32
2019-01-20T10:02:53.040Z,962.31
2019-01-20T10:03:53.051Z,962.32
2019-01-20T10:04:53.158Z,962.32
2019-01-20T10:05:53.058Z,962.33
2019-01-20T10:06:53.064Z,962.31
2019-01-20T10:07:53.073Z,962.33
2019-01-20T10:08:53.085Z,962.33
2019-01-20T10:09:53.084Z,962.33
2019-01-20T10:10:53.096Z,962.36
2019-01-20T10:11:53.097Z,962.40
2019-01-20T10:12:53.115Z,962.34
2019-01-20T10:13:54.911Z,962.36
2019-01-20T10:14:53.128Z,962.36
2019-01-20T10:15:53.128Z,962.37
2019-01-20T10:16:53.135Z,962.35
2019-01-20T10:17:53.142Z,962.37
2019-01-20T10:18:53.148Z,962.40
2019-01-20T10:19:53.173Z,962.41
2019-01-20T10:20:53.175Z,962.38
2019-01-20T10:21:53.172Z,962.42
2019-01-20T10:22:53.962Z,962.41
2019-01-20T10:23:53.267Z,962.41
2019-01-20T10:24:53.198Z,962.39
2019-01-20T10:25:53.211Z,962.40
2019-01-20T10:26:53.207Z,962.36
2019-01-20T10:27:53.234Z,962.43
2019-01-20T10:28:53.271Z,962.42
2019-01-20T10:30:46.361Z,962.39
2019-01-20T10:31:46.390Z,962.42
2019-01-20T10:33:42.856Z,962.45
2019-01-20T10:34:39.775Z,962.46
2019-01-20T10:36:33.518Z,962.45
2019-01-20T10:37:33.525Z,962.51
2019-01-20T10:39:27.073Z,962.49
2019-01-20T10:40:27.046Z,962.49
2019-01-20T10:42:20.722Z,962.49
2019-01-20T10:43:21.528Z,962.46
2019-01-20T10:45:13.666Z,962.47
2019-01-20T10:46:13.318Z,962.47
2019-01-20T10:47:14.830Z,962.50
2019-01-20T10:48:24.246Z,962.47
2019-01-20T10:49:16.846Z,962.48
2019-01-20T10:50:13.614Z,962.54
2019-01-20T10:51:17.587Z,962.49
2019-01-20T10:52:22.173Z,962.50
2019-01-20T10:54:09.095Z,962.29
2019-01-20T10:55:08.686Z,962.23
2019-01-20T10:56:08.106Z,962.14
2019-01-20T10:57:08.148Z,962.09
2019-01-20T10:58:07.962Z,962.08
2019-01-20T10:59:08.213Z,962.07
2019-01-20T11:00:07.980Z,962.07
2019-01-20T11:01:08.290Z,962.00
2019-01-20T11:02:08.056Z,961.99
2019-01-20T11:03:08.058Z,961.93
2019-01-20T11:04:08.031Z,961.95
2019-01-20T11:05:08.068Z,961.94
2019-01-20T11:06:08.085Z,961.89
2019-01-20T11:07:08.058Z,961.90
2019-01-20T11:08:10.742Z,961.90
2019-01-20T11:09:08.142Z,961.91
2019-01-20T11:10:08.054Z,961.93
2019-01-20T11:11:08.372Z,961.92
2019-01-20T11:12:10.916Z,961.90
2019-01-20T11:13:09.992Z,961.85
2019-01-20T11:14:09.653Z,961.83
2019-01-20T11:15:09.865Z,961.88
2019-01-20T11:16:08.071Z,961.85
2019-01-20T11:17:08.084Z,961.88
2019-01-20T11:18:08.090Z,961.85
2019-01-20T11:19:08.116Z,961.88
2019-01-20T11:20:08.079Z,961.84
2019-01-20T11:21:08.088Z,961.87
2019-01-20T11:22:08.080Z,961.86
2019-01-20T11:23:08.082Z,961.80
2019-01-20T11:24:08.064Z,961.82
2019-01-20T11:25:09.822Z,961.79
2019-01-20T11:26:08.078Z,961.85
2019-01-20T11:27:08.071Z,961.82
2019-01-20T11:28:08.145Z,961.80
2019-01-20T11:29:08.852Z,961.83
2019-01-20T11:30:08.041Z,961.80
2019-01-20T11:31:08.060Z,961.78
2019-01-20T11:32:08.039Z,961.80
2019-01-20T11:33:08.037Z,961.78
2019-01-20T11:34:08.204Z,961.83
2019-01-20T11:35:08.040Z,961.78
2019-01-20T11:36:08.061Z,961.79
2019-01-20T11:37:08.083Z,961.76
2019-01-20T11:38:08.077Z,961.78
2019-01-20T11:39:08.052Z,961.81
2019-01-20T11:40:08.745Z,961.77
2019-01-20T11:41:08.041Z,961.73
2019-01-20T11:42:08.274Z,961.76
2019-01-20T11:43:08.012Z,961.76
2019-01-20T11:44:16.684Z,961.71
2019-01-20T11:45:08.002Z,961.78
2019-01-20T11:46:15.547Z,961.77
2019-01-20T11:48:01.643Z,961.78
2019-01-20T11:49:01.726Z,961.73
2019-01-20T11:50:54.588Z,961.72
2019-01-20T11:51:54.431Z,961.72
2019-01-20T11:53:47.994Z,961.70
2019-01-20T11:54:47.883Z,961.77
2019-01-20T11:56:40.887Z,961.74
2019-01-20T11:57:40.644Z,961.74
2019-01-20T11:59:33.677Z,961.72
2019-01-20T12:00:33.462Z,961.72
2019-01-20T12:02:26.527Z,961.69
2019-01-20T12:03:26.523Z,961.71
2019-01-20T12:05:23.068Z,961.78
2019-01-20T12:06:19.685Z,961.72
2019-01-20T12:07:19.913Z,961.68
2019-01-20T12:08:19.638Z,961.69
2019-01-20T12:09:19.664Z,961.70
2019-01-20T12:10:19.624Z,961.72
2019-01-20T12:11:19.626Z,961.70
2019-01-20T12:12:19.623Z,961.69
2019-01-20T12:13:19.615Z,961.67
2019-01-20T12:14:24.028Z,961.69
2019-01-20T12:15:19.594Z,961.71
2019-01-20T12:16:19.642Z,961.75
2019-01-20T12:17:19.574Z,961.73
2019-01-20T12:18:19.588Z,961.72
2019-01-20T12:19:19.580Z,961.67
2019-01-20T12:20:19.575Z,961.68
2019-01-20T12:21:19.574Z,961.67
2019-01-20T12:22:19.577Z,961.65
2019-01-20T12:23:19.579Z,961.61
2019-01-20T12:24:19.627Z,961.66
2019-01-20T12:25:27.029Z,961.64
2019-01-20T12:27:13.291Z,961.62
2019-01-20T12:28:13.138Z,961.66
2019-01-20T12:30:06.772Z,961.66
2019-01-20T12:31:06.504Z,961.68
2019-01-20T12:33:00.651Z,961.65
2019-01-20T12:34:00.647Z,961.68
2019-01-20T12:35:54.294Z,961.68
2019-01-20T12:36:53.832Z,961.69
2019-01-20T12:38:46.896Z,961.66
2019-01-20T12:39:46.789Z,961.67
2019-01-20T12:41:40.816Z,961.62
2019-01-20T12:42:40.651Z,961.63
2019-01-20T12:44:33.947Z,961.63
2019-01-20T12:45:33.740Z,961.66
2019-01-20T12:47:28.720Z,961.65